sensor_id;sensor_type;location;lat;lon;timestamp;temperature;humidity
16867;DHT22;8550;52.596;13.320;2023-10-31T00:01:12;12.70;99.90
16867;DHT22;8550;52.596;13.320;2023-10-31T00:06:14;12.70;99.90
16867;DHT22;8550;52.596;13.320;2023-10-31T00:11:18;12.60;99.90
16867;DHT22;8550;52.596;13.320;2023-10-31T00:16:19;12.60;99.90
16867;DHT22;8550;52.596;13.320;2023-10-31T00:21:21;12.70;99.90
16867;DHT22;8550;52.596;13.320;2023-10-31T00:26:25;12.80;99.90
16867;DHT22;8550;52.596;13.320;2023-10-31T00:31:26;12.80;99.90
16867;DHT22;8550;52.596;13.320;2023-10-31T00:36:28;12.80;99.90
16867;DHT22;8550;52.596;13.320;2023-10-31T00:41:31;12.80;99.90
16867;DHT22;8550;52.596;13.320;2023-10-31T00:46:33;12.70;99.90
16867;DHT22;8550;52.596;13.320;2023-10-31T00:51:35;12.60;99.90
16867;DHT22;8550;52.596;13.320;2023-10-31T00:56:38;12.50;99.90
16867;DHT22;8550;52.596;13.320;2023-10-31T01:01:42;12.50;99.90
16867;DHT22;8550;52.596;13.320;2023-10-31T01:06:44;12.50;99.90
16867;DHT22;8550;52.596;13.320;2023-10-31T01:11:47;12.50;99.90
16867;DHT22;8550;52.596;13.320;2023-10-31T01:16:49;12.50;99.90
16867;DHT22;8550;52.596;13.320;2023-10-31T01:21:51;12.40;99.90
16867;DHT22;8550;52.596;13.320;2023-10-31T01:26:54;12.30;99.90
16867;DHT22;8550;52.596;13.320;2023-10-31T01:31:56;12.30;99.90
16867;DHT22;8550;52.596;13.320;2023-10-31T01:36:58;12.30;99.90
16867;DHT22;8550;52.596;13.320;2023-10-31T01:42:01;12.20;99.90
16867;DHT22;8550;52.596;13.320;2023-10-31T01:47:03;12.30;99.90
16867;DHT22;8550;52.596;13.320;2023-10-31T01:52:06;12.20;99.90
16867;DHT22;8550;52.596;13.320;2023-10-31T01:57:10;12.30;99.90
16867;DHT22;8550;52.596;13.320;2023-10-31T02:02:12;12.30;99.90
16867;DHT22;8550;52.596;13.320;2023-10-31T02:07:14;12.10;99.90
16867;DHT22;8550;52.596;13.320;2023-10-31T02:17:44;12.10;99.90
16867;DHT22;8550;52.596;13.320;2023-10-31T02:22:48;11.90;99.90
16867;DHT22;8550;52.596;13.320;2023-10-31T02:27:50;12.00;99.90
16867;DHT22;8550;52.596;13.320;2023-10-31T02:32:51;12.10;99.90
16867;DHT22;8550;52.596;13.320;2023-10-31T02:37:55;12.00;99.90
16867;DHT22;8550;52.596;13.320;2023-10-31T02:42:57;12.00;99.90
16867;DHT22;8550;52.596;13.320;2023-10-31T02:47:58;12.00;99.90
16867;DHT22;8550;52.596;13.320;2023-10-31T02:53:02;12.00;99.90
16867;DHT22;8550;52.596;13.320;2023-10-31T02:58:04;12.10;99.90
16867;DHT22;8550;52.596;13.320;2023-10-31T03:03:06;12.10;99.90
16867;DHT22;8550;52.596;13.320;2023-10-31T03:08:09;12.00;99.90
16867;DHT22;8550;52.596;13.320;2023-10-31T03:13:12;11.90;99.90
16867;DHT22;8550;52.596;13.320;2023-10-31T03:18:14;11.90;99.90
16867;DHT22;8550;52.596;13.320;2023-10-31T03:23:18;11.90;99.90
16867;DHT22;8550;52.596;13.320;2023-10-31T03:28:20;11.80;99.90
16867;DHT22;8550;52.596;13.320;2023-10-31T03:33:27;11.80;99.90
16867;DHT22;8550;52.596;13.320;2023-10-31T03:38:31;11.80;99.90
16867;DHT22;8550;52.596;13.320;2023-10-31T03:43:33;11.80;99.90
16867;DHT22;8550;52.596;13.320;2023-10-31T03:48:35;11.80;99.90
16867;DHT22;8550;52.596;13.320;2023-10-31T03:53:38;11.80;99.90
16867;DHT22;8550;52.596;13.320;2023-10-31T03:58:42;11.80;99.90
16867;DHT22;8550;52.596;13.320;2023-10-31T04:03:44;12.00;99.90
16867;DHT22;8550;52.596;13.320;2023-10-31T04:08:47;11.90;99.90
16867;DHT22;8550;52.596;13.320;2023-10-31T04:13:49;12.00;99.90
16867;DHT22;8550;52.596;13.320;2023-10-31T04:18:51;12.00;99.90
16867;DHT22;8550;52.596;13.320;2023-10-31T04:23:54;12.10;99.90
16867;DHT22;8550;52.596;13.320;2023-10-31T04:28:56;12.10;99.90
16867;DHT22;8550;52.596;13.320;2023-10-31T04:33:58;12.10;99.90
16867;DHT22;8550;52.596;13.320;2023-10-31T04:39:01;12.10;99.90
16867;DHT22;8550;52.596;13.320;2023-10-31T04:44:03;12.10;99.90
16867;DHT22;8550;52.596;13.320;2023-10-31T04:49:05;12.00;99.90
16867;DHT22;8550;52.596;13.320;2023-10-31T04:54:08;12.00;99.90
16867;DHT22;8550;52.596;13.320;2023-10-31T04:59:10;12.00;99.90
16867;DHT22;8550;52.596;13.320;2023-10-31T05:04:12;12.00;99.90
16867;DHT22;8550;52.596;13.320;2023-10-31T05:09:15;12.00;99.90
16867;DHT22;8550;52.596;13.320;2023-10-31T05:14:18;12.00;99.90
16867;DHT22;8550;52.596;13.320;2023-10-31T05:19:20;12.00;99.90
16867;DHT22;8550;52.596;13.320;2023-10-31T05:24:23;12.00;99.90
16867;DHT22;8550;52.596;13.320;2023-10-31T05:29:25;12.00;99.90
16867;DHT22;8550;52.596;13.320;2023-10-31T05:34:27;12.10;99.90
16867;DHT22;8550;52.596;13.320;2023-10-31T05:39:30;12.00;99.90
16867;DHT22;8550;52.596;13.320;2023-10-31T05:44:32;12.00;99.90
16867;DHT22;8550;52.596;13.320;2023-10-31T05:49:34;12.00;99.90
16867;DHT22;8550;52.596;13.320;2023-10-31T05:54:37;12.00;99.90
16867;DHT22;8550;52.596;13.320;2023-10-31T05:59:39;12.00;99.90
16867;DHT22;8550;52.596;13.320;2023-10-31T06:04:41;12.00;99.90
16867;DHT22;8550;52.596;13.320;2023-10-31T06:09:47;12.10;99.90
16867;DHT22;8550;52.596;13.320;2023-10-31T06:14:48;12.10;99.90
16867;DHT22;8550;52.596;13.320;2023-10-31T06:19:50;12.30;99.90
16867;DHT22;8550;52.596;13.320;2023-10-31T06:24:54;12.30;99.90
16867;DHT22;8550;52.596;13.320;2023-10-31T06:29:56;12.30;99.90
16867;DHT22;8550;52.596;13.320;2023-10-31T06:34:57;12.30;99.90
16867;DHT22;8550;52.596;13.320;2023-10-31T06:40:01;12.30;99.90
16867;DHT22;8550;52.596;13.320;2023-10-31T06:45:03;12.40;99.90
16867;DHT22;8550;52.596;13.320;2023-10-31T06:50:08;12.50;99.90
16867;DHT22;8550;52.596;13.320;2023-10-31T06:55:11;12.50;99.90
16867;DHT22;8550;52.596;13.320;2023-10-31T07:00:14;12.50;99.90
16867;DHT22;8550;52.596;13.320;2023-10-31T07:05:16;12.60;99.90
16867;DHT22;8550;52.596;13.320;2023-10-31T07:10:22;12.60;99.90
16867;DHT22;8550;52.596;13.320;2023-10-31T07:15:23;12.70;99.90
16867;DHT22;8550;52.596;13.320;2023-10-31T07:20:25;12.70;99.90
16867;DHT22;8550;52.596;13.320;2023-10-31T07:25:29;12.70;99.90
16867;DHT22;8550;52.596;13.320;2023-10-31T07:30:31;12.80;99.90
16867;DHT22;8550;52.596;13.320;2023-10-31T07:35:33;12.70;99.90
16867;DHT22;8550;52.596;13.320;2023-10-31T07:40:36;12.60;99.90
16867;DHT22;8550;52.596;13.320;2023-10-31T07:45:38;12.60;99.90
16867;DHT22;8550;52.596;13.320;2023-10-31T07:50:40;12.60;99.90
16867;DHT22;8550;52.596;13.320;2023-10-31T07:55:45;12.50;99.90
16867;DHT22;8550;52.596;13.320;2023-10-31T08:00:47;12.40;99.90
16867;DHT22;8550;52.596;13.320;2023-10-31T08:05:49;12.40;99.90
16867;DHT22;8550;52.596;13.320;2023-10-31T08:10:52;12.40;99.90
16867;DHT22;8550;52.596;13.320;2023-10-31T08:15:56;12.30;99.90
16867;DHT22;8550;52.596;13.320;2023-10-31T08:20:58;12.30;99.90
16867;DHT22;8550;52.596;13.320;2023-10-31T08:26:01;12.30;99.90
16867;DHT22;8550;52.596;13.320;2023-10-31T08:31:03;12.30;99.90
16867;DHT22;8550;52.596;13.320;2023-10-31T08:36:06;12.30;99.90
16867;DHT22;8550;52.596;13.320;2023-10-31T08:41:09;12.40;99.90
16867;DHT22;8550;52.596;13.320;2023-10-31T08:46:11;12.30;99.90
16867;DHT22;8550;52.596;13.320;2023-10-31T08:51:14;12.40;99.90
16867;DHT22;8550;52.596;13.320;2023-10-31T08:56:17;12.50;99.90
16867;DHT22;8550;52.596;13.320;2023-10-31T09:01:20;12.50;99.90
16867;DHT22;8550;52.596;13.320;2023-10-31T09:06:22;12.50;99.90
16867;DHT22;8550;52.596;13.320;2023-10-31T09:11:25;12.50;99.90
16867;DHT22;8550;52.596;13.320;2023-10-31T09:16:28;12.60;99.90
16867;DHT22;8550;52.596;13.320;2023-10-31T09:21:30;12.90;99.90
16867;DHT22;8550;52.596;13.320;2023-10-31T09:26:33;12.90;99.90
16867;DHT22;8550;52.596;13.320;2023-10-31T09:31:35;12.90;99.90
16867;DHT22;8550;52.596;13.320;2023-10-31T09:36:39;12.90;99.90
16867;DHT22;8550;52.596;13.320;2023-10-31T09:41:42;12.80;99.90
16867;DHT22;8550;52.596;13.320;2023-10-31T09:46:45;12.80;99.90
16867;DHT22;8550;52.596;13.320;2023-10-31T09:51:49;12.80;99.90
16867;DHT22;8550;52.596;13.320;2023-10-31T09:56:52;12.80;99.90
16867;DHT22;8550;52.596;13.320;2023-10-31T10:01:54;12.70;99.90
16867;DHT22;8550;52.596;13.320;2023-10-31T10:06:59;12.80;99.90
16867;DHT22;8550;52.596;13.320;2023-10-31T10:12:05;12.80;99.90
16867;DHT22;8550;52.596;13.320;2023-10-31T10:17:15;12.90;99.90
16867;DHT22;8550;52.596;13.320;2023-10-31T10:22:20;13.00;99.90
16867;DHT22;8550;52.596;13.320;2023-10-31T10:27:23;13.20;99.90
16867;DHT22;8550;52.596;13.320;2023-10-31T10:32:25;13.40;99.90
16867;DHT22;8550;52.596;13.320;2023-10-31T10:37:27;13.40;99.90
16867;DHT22;8550;52.596;13.320;2023-10-31T10:42:33;13.20;99.90
16867;DHT22;8550;52.596;13.320;2023-10-31T10:47:39;13.20;99.90
16867;DHT22;8550;52.596;13.320;2023-10-31T10:52:44;13.20;99.90
16867;DHT22;8550;52.596;13.320;2023-10-31T10:57:59;13.10;99.90
16867;DHT22;8550;52.596;13.320;2023-10-31T11:03:03;13.20;99.90
16867;DHT22;8550;52.596;13.320;2023-10-31T11:08:06;13.30;99.90
16867;DHT22;8550;52.596;13.320;2023-10-31T11:13:09;13.40;99.90
16867;DHT22;8550;52.596;13.320;2023-10-31T11:18:12;13.30;99.90
16867;DHT22;8550;52.596;13.320;2023-10-31T11:23:14;13.60;99.90
16867;DHT22;8550;52.596;13.320;2023-10-31T11:28:17;13.60;99.90
16867;DHT22;8550;52.596;13.320;2023-10-31T11:33:20;13.50;99.90
16867;DHT22;8550;52.596;13.320;2023-10-31T11:38:31;13.40;99.90
16867;DHT22;8550;52.596;13.320;2023-10-31T11:43:54;13.40;99.90
16867;DHT22;8550;52.596;13.320;2023-10-31T11:48:57;13.30;99.90
16867;DHT22;8550;52.596;13.320;2023-10-31T11:54:01;13.50;99.90
16867;DHT22;8550;52.596;13.320;2023-10-31T11:59:05;13.60;99.90
16867;DHT22;8550;52.596;13.320;2023-10-31T12:04:08;13.80;99.90
16867;DHT22;8550;52.596;13.320;2023-10-31T12:09:10;13.70;99.90
16867;DHT22;8550;52.596;13.320;2023-10-31T12:14:18;13.40;99.90
16867;DHT22;8550;52.596;13.320;2023-10-31T12:19:21;13.30;99.90
16867;DHT22;8550;52.596;13.320;2023-10-31T12:24:23;13.30;99.90
16867;DHT22;8550;52.596;13.320;2023-10-31T12:29:26;13.40;99.90
16867;DHT22;8550;52.596;13.320;2023-10-31T12:34:28;13.50;99.90
16867;DHT22;8550;52.596;13.320;2023-10-31T12:39:30;13.60;99.90
16867;DHT22;8550;52.596;13.320;2023-10-31T12:44:34;13.40;99.90
16867;DHT22;8550;52.596;13.320;2023-10-31T12:49:36;13.30;99.90
16867;DHT22;8550;52.596;13.320;2023-10-31T12:54:38;13.30;99.90
16867;DHT22;8550;52.596;13.320;2023-10-31T12:59:42;13.30;99.90
16867;DHT22;8550;52.596;13.320;2023-10-31T13:04:44;13.20;99.90
16867;DHT22;8550;52.596;13.320;2023-10-31T13:09:48;13.20;99.90
16867;DHT22;8550;52.596;13.320;2023-10-31T13:14:52;13.20;99.90
16867;DHT22;8550;52.596;13.320;2023-10-31T13:19:54;13.10;99.90
16867;DHT22;8550;52.596;13.320;2023-10-31T13:24:56;13.20;99.90
16867;DHT22;8550;52.596;13.320;2023-10-31T13:29:59;13.20;99.90
16867;DHT22;8550;52.596;13.320;2023-10-31T13:35:04;13.10;99.90
16867;DHT22;8550;52.596;13.320;2023-10-31T13:40:08;13.00;99.90
16867;DHT22;8550;52.596;13.320;2023-10-31T13:45:11;12.70;99.90
16867;DHT22;8550;52.596;13.320;2023-10-31T13:50:13;12.50;99.90
16867;DHT22;8550;52.596;13.320;2023-10-31T13:55:16;12.60;99.90
16867;DHT22;8550;52.596;13.320;2023-10-31T14:00:19;12.70;99.90
16867;DHT22;8550;52.596;13.320;2023-10-31T14:05:21;12.60;99.90
16867;DHT22;8550;52.596;13.320;2023-10-31T14:10:23;12.70;99.90
16867;DHT22;8550;52.596;13.320;2023-10-31T14:15:27;12.70;99.90
16867;DHT22;8550;52.596;13.320;2023-10-31T14:20:29;12.70;99.90
16867;DHT22;8550;52.596;13.320;2023-10-31T14:25:31;12.70;99.90
16867;DHT22;8550;52.596;13.320;2023-10-31T14:30:34;12.60;99.90
16867;DHT22;8550;52.596;13.320;2023-10-31T14:35:36;12.50;99.90
16867;DHT22;8550;52.596;13.320;2023-10-31T14:40:38;12.20;99.90
16867;DHT22;8550;52.596;13.320;2023-10-31T14:45:41;11.90;99.90
16867;DHT22;8550;52.596;13.320;2023-10-31T14:50:43;11.60;99.90
16867;DHT22;8550;52.596;13.320;2023-10-31T14:55:46;11.40;99.90
16867;DHT22;8550;52.596;13.320;2023-10-31T15:00:49;11.30;99.90
16867;DHT22;8550;52.596;13.320;2023-10-31T15:05:52;11.20;99.90
16867;DHT22;8550;52.596;13.320;2023-10-31T15:10:54;11.30;99.90
16867;DHT22;8550;52.596;13.320;2023-10-31T15:15:59;11.20;99.90
16867;DHT22;8550;52.596;13.320;2023-10-31T15:21:01;11.20;99.90
16867;DHT22;8550;52.596;13.320;2023-10-31T15:26:03;11.20;99.90
16867;DHT22;8550;52.596;13.320;2023-10-31T15:31:07;11.20;99.90
16867;DHT22;8550;52.596;13.320;2023-10-31T15:36:10;11.20;99.90
16867;DHT22;8550;52.596;13.320;2023-10-31T15:41:13;11.20;99.90
16867;DHT22;8550;52.596;13.320;2023-10-31T15:46:17;11.20;99.90
16867;DHT22;8550;52.596;13.320;2023-10-31T15:51:19;11.10;99.90
16867;DHT22;8550;52.596;13.320;2023-10-31T15:56:21;11.20;99.90
16867;DHT22;8550;52.596;13.320;2023-10-31T16:01:24;11.20;99.90
16867;DHT22;8550;52.596;13.320;2023-10-31T16:06:27;11.10;99.90
16867;DHT22;8550;52.596;13.320;2023-10-31T16:11:30;11.20;99.90
16867;DHT22;8550;52.596;13.320;2023-10-31T16:16:34;11.10;99.90
16867;DHT22;8550;52.596;13.320;2023-10-31T16:21:36;11.00;99.90
16867;DHT22;8550;52.596;13.320;2023-10-31T16:26:37;11.00;99.90
16867;DHT22;8550;52.596;13.320;2023-10-31T16:31:41;11.00;99.90
16867;DHT22;8550;52.596;13.320;2023-10-31T16:36:47;11.10;99.90
16867;DHT22;8550;52.596;13.320;2023-10-31T16:41:51;11.10;99.90
16867;DHT22;8550;52.596;13.320;2023-10-31T16:46:54;11.00;99.90
16867;DHT22;8550;52.596;13.320;2023-10-31T16:51:57;11.00;99.90
16867;DHT22;8550;52.596;13.320;2023-10-31T16:56:59;11.00;99.90
16867;DHT22;8550;52.596;13.320;2023-10-31T17:02:03;11.00;99.90
16867;DHT22;8550;52.596;13.320;2023-10-31T17:07:06;11.00;99.90
16867;DHT22;8550;52.596;13.320;2023-10-31T17:12:08;11.00;99.90
16867;DHT22;8550;52.596;13.320;2023-10-31T17:17:12;11.00;99.90
16867;DHT22;8550;52.596;13.320;2023-10-31T17:22:14;11.00;99.90
16867;DHT22;8550;52.596;13.320;2023-10-31T17:27:16;11.00;99.90
16867;DHT22;8550;52.596;13.320;2023-10-31T17:32:21;11.00;99.90
16867;DHT22;8550;52.596;13.320;2023-10-31T17:37:23;11.00;99.90
16867;DHT22;8550;52.596;13.320;2023-10-31T17:42:27;11.00;99.90
16867;DHT22;8550;52.596;13.320;2023-10-31T17:47:30;11.00;99.90
16867;DHT22;8550;52.596;13.320;2023-10-31T17:52:32;11.00;99.90
16867;DHT22;8550;52.596;13.320;2023-10-31T17:57:34;10.90;99.90
16867;DHT22;8550;52.596;13.320;2023-10-31T18:02:38;10.80;99.90
16867;DHT22;8550;52.596;13.320;2023-10-31T18:07:40;10.80;99.90
16867;DHT22;8550;52.596;13.320;2023-10-31T18:12:42;10.90;99.90
16867;DHT22;8550;52.596;13.320;2023-10-31T18:17:48;10.90;99.90
16867;DHT22;8550;52.596;13.320;2023-10-31T18:22:50;11.00;99.90
16867;DHT22;8550;52.596;13.320;2023-10-31T18:27:52;10.90;99.90
16867;DHT22;8550;52.596;13.320;2023-10-31T18:32:55;11.00;99.90
16867;DHT22;8550;52.596;13.320;2023-10-31T18:38:03;11.10;99.90
16867;DHT22;8550;52.596;13.320;2023-10-31T18:43:05;11.10;99.90
16867;DHT22;8550;52.596;13.320;2023-10-31T18:48:08;11.10;99.90
16867;DHT22;8550;52.596;13.320;2023-10-31T18:53:11;11.10;99.90
16867;DHT22;8550;52.596;13.320;2023-10-31T18:58:13;11.10;99.90
16867;DHT22;8550;52.596;13.320;2023-10-31T19:03:16;10.90;99.90
16867;DHT22;8550;52.596;13.320;2023-10-31T19:08:18;10.80;99.90
16867;DHT22;8550;52.596;13.320;2023-10-31T19:13:23;10.80;99.90
16867;DHT22;8550;52.596;13.320;2023-10-31T19:18:32;10.70;99.90
16867;DHT22;8550;52.596;13.320;2023-10-31T19:23:34;10.60;99.90
16867;DHT22;8550;52.596;13.320;2023-10-31T19:28:36;10.40;99.90
16867;DHT22;8550;52.596;13.320;2023-10-31T19:33:40;10.20;99.90
16867;DHT22;8550;52.596;13.320;2023-10-31T19:38:42;10.00;99.90
16867;DHT22;8550;52.596;13.320;2023-10-31T19:43:44;9.80;99.90
16867;DHT22;8550;52.596;13.320;2023-10-31T19:48:47;9.70;99.90
16867;DHT22;8550;52.596;13.320;2023-10-31T19:53:51;9.60;99.90
16867;DHT22;8550;52.596;13.320;2023-10-31T19:58:53;9.50;99.90
16867;DHT22;8550;52.596;13.320;2023-10-31T20:03:58;9.40;99.90
16867;DHT22;8550;52.596;13.320;2023-10-31T20:09:00;9.40;99.90
16867;DHT22;8550;52.596;13.320;2023-10-31T20:14:02;9.40;99.90
16867;DHT22;8550;52.596;13.320;2023-10-31T20:19:08;9.30;99.90
16867;DHT22;8550;52.596;13.320;2023-10-31T20:24:11;9.10;99.90
16867;DHT22;8550;52.596;13.320;2023-10-31T20:29:13;8.90;99.90
16867;DHT22;8550;52.596;13.320;2023-10-31T20:34:17;8.70;99.90
16867;DHT22;8550;52.596;13.320;2023-10-31T20:39:19;8.60;99.90
16867;DHT22;8550;52.596;13.320;2023-10-31T20:44:21;8.50;99.90
16867;DHT22;8550;52.596;13.320;2023-10-31T20:49:24;8.40;99.90
16867;DHT22;8550;52.596;13.320;2023-10-31T20:54:26;8.20;99.90
16867;DHT22;8550;52.596;13.320;2023-10-31T20:59:28;8.20;99.90
16867;DHT22;8550;52.596;13.320;2023-10-31T21:04:32;8.00;99.90
16867;DHT22;8550;52.596;13.320;2023-10-31T21:09:37;8.00;99.90
16867;DHT22;8550;52.596;13.320;2023-10-31T21:14:39;8.00;99.90
16867;DHT22;8550;52.596;13.320;2023-10-31T21:19:42;7.80;99.90
16867;DHT22;8550;52.596;13.320;2023-10-31T21:24:44;7.70;99.90
16867;DHT22;8550;52.596;13.320;2023-10-31T21:29:46;7.70;99.90
16867;DHT22;8550;52.596;13.320;2023-10-31T21:34:49;7.60;99.90
16867;DHT22;8550;52.596;13.320;2023-10-31T21:39:51;7.60;99.90
16867;DHT22;8550;52.596;13.320;2023-10-31T21:44:53;7.60;99.90
16867;DHT22;8550;52.596;13.320;2023-10-31T21:49:57;7.60;99.90
16867;DHT22;8550;52.596;13.320;2023-10-31T21:55:00;7.50;99.90
16867;DHT22;8550;52.596;13.320;2023-10-31T22:00:04;7.50;99.90
16867;DHT22;8550;52.596;13.320;2023-10-31T22:05:08;7.40;99.90
16867;DHT22;8550;52.596;13.320;2023-10-31T22:10:10;7.30;99.90
16867;DHT22;8550;52.596;13.320;2023-10-31T22:15:13;7.40;99.90
16867;DHT22;8550;52.596;13.320;2023-10-31T22:20:17;7.40;99.90
16867;DHT22;8550;52.596;13.320;2023-10-31T22:25:19;7.50;99.90
16867;DHT22;8550;52.596;13.320;2023-10-31T22:30:22;7.50;99.90
16867;DHT22;8550;52.596;13.320;2023-10-31T22:35:26;7.60;99.90
16867;DHT22;8550;52.596;13.320;2023-10-31T22:40:29;7.50;99.90
16867;DHT22;8550;52.596;13.320;2023-10-31T22:45:31;7.50;99.90
16867;DHT22;8550;52.596;13.320;2023-10-31T22:50:34;7.50;99.90
16867;DHT22;8550;52.596;13.320;2023-10-31T22:55:36;7.40;99.90
16867;DHT22;8550;52.596;13.320;2023-10-31T23:00:38;7.40;99.90
16867;DHT22;8550;52.596;13.320;2023-10-31T23:05:42;7.50;99.90
16867;DHT22;8550;52.596;13.320;2023-10-31T23:10:45;7.50;99.90
16867;DHT22;8550;52.596;13.320;2023-10-31T23:15:47;7.40;99.90
16867;DHT22;8550;52.596;13.320;2023-10-31T23:20:50;7.40;99.90
16867;DHT22;8550;52.596;13.320;2023-10-31T23:25:52;7.40;99.90
16867;DHT22;8550;52.596;13.320;2023-10-31T23:30:54;7.30;99.90
16867;DHT22;8550;52.596;13.320;2023-10-31T23:35:57;7.40;99.90
16867;DHT22;8550;52.596;13.320;2023-10-31T23:40:59;7.40;99.90
16867;DHT22;8550;52.596;13.320;2023-10-31T23:46:01;7.50;99.90
16867;DHT22;8550;52.596;13.320;2023-10-31T23:51:04;7.40;99.90
16867;DHT22;8550;52.596;13.320;2023-10-31T23:56:07;7.40;99.90
